createdAt,value
2017-06-18T00:00:08.388Z,0
2017-06-18T00:01:09.647Z,0
2017-06-18T00:02:10.871Z,0
2017-06-18T00:03:12.114Z,0
2017-06-18T00:04:13.361Z,0
2017-06-18T00:05:14.638Z,0
2017-06-18T00:06:15.886Z,0
2017-06-18T00:07:17.243Z,0
2017-06-18T00:08:18.500Z,0
2017-06-18T00:09:19.768Z,0
2017-06-18T00:10:21.002Z,0
2017-06-18T00:11:22.255Z,0
2017-06-18T00:12:23.498Z,0
2017-06-18T00:13:24.737Z,0
2017-06-18T00:14:25.990Z,0
2017-06-18T00:15:27.233Z,0
2017-06-18T00:16:28.532Z,0
2017-06-18T00:17:29.803Z,0
2017-06-18T00:18:31.039Z,0
2017-06-18T00:19:32.283Z,0
2017-06-18T00:20:33.536Z,0
2017-06-18T00:21:34.778Z,0
2017-06-18T00:22:36.034Z,0
2017-06-18T00:23:37.338Z,0
2017-06-18T00:24:38.584Z,0
2017-06-18T00:25:39.829Z,0
2017-06-18T00:26:41.096Z,0
2017-06-18T00:27:42.341Z,0
2017-06-18T00:28:43.585Z,0
2017-06-18T00:29:44.831Z,0
2017-06-18T00:30:46.114Z,0
2017-06-18T00:31:47.423Z,0
2017-06-18T00:32:48.683Z,0
2017-06-18T00:33:49.909Z,0
2017-06-18T00:34:51.152Z,0
2017-06-18T00:35:52.403Z,0
2017-06-18T00:36:53.720Z,0
2017-06-18T00:37:54.971Z,0
2017-06-18T00:38:56.209Z,0
2017-06-18T00:39:57.489Z,0
2017-06-18T00:40:58.725Z,0
2017-06-18T00:41:59.957Z,0
2017-06-18T00:43:01.234Z,0
2017-06-18T00:44:02.474Z,0
2017-06-18T00:45:03.793Z,0
2017-06-18T00:46:05.070Z,0
2017-06-18T00:47:06.312Z,0
2017-06-18T00:48:07.675Z,0
2017-06-18T00:49:08.901Z,0
2017-06-18T00:50:10.184Z,0
2017-06-18T00:51:11.420Z,0
2017-06-18T00:52:12.672Z,0
2017-06-18T00:53:13.961Z,0
2017-06-18T00:54:15.226Z,0
2017-06-18T00:55:16.455Z,0
2017-06-18T00:56:17.709Z,0
2017-06-18T00:57:18.959Z,0
2017-06-18T00:58:20.228Z,0
2017-06-18T00:59:21.463Z,0
2017-06-18T01:00:22.700Z,0
2017-06-18T01:01:23.960Z,0
2017-06-18T01:02:25.190Z,0
2017-06-18T01:03:26.425Z,0
2017-06-18T01:04:27.714Z,0
2017-06-18T01:05:28.970Z,0
2017-06-18T01:06:30.214Z,0
2017-06-18T01:07:31.472Z,0
2017-06-18T01:08:32.704Z,0
2017-06-18T01:09:34.073Z,0
2017-06-18T01:10:35.379Z,0
2017-06-18T01:11:36.630Z,0
2017-06-18T01:12:37.854Z,0
2017-06-18T01:13:39.112Z,0
2017-06-18T01:14:40.448Z,0
2017-06-18T01:15:41.701Z,0
2017-06-18T01:16:42.971Z,0
2017-06-18T01:17:44.215Z,0
2017-06-18T01:18:45.491Z,0
2017-06-18T01:19:46.739Z,0
2017-06-18T01:20:47.982Z,0
2017-06-18T01:21:49.228Z,0
2017-06-18T01:22:50.472Z,0
2017-06-18T01:23:51.730Z,0
2017-06-18T01:24:52.966Z,0
2017-06-18T01:25:54.238Z,0
2017-06-18T01:26:55.489Z,0
2017-06-18T01:27:56.715Z,0
2017-06-18T01:28:57.991Z,0
2017-06-18T01:29:59.228Z,0
2017-06-18T01:31:00.469Z,0
2017-06-18T01:32:01.736Z,0
2017-06-18T01:33:02.986Z,0
2017-06-18T01:34:04.206Z,0
2017-06-18T01:35:05.483Z,0
2017-06-18T01:36:06.732Z,0
2017-06-18T01:37:08.037Z,0
2017-06-18T01:38:09.388Z,0
2017-06-18T01:39:10.635Z,0
2017-06-18T01:40:11.892Z,0
2017-06-18T01:41:13.211Z,0
2017-06-18T01:42:14.480Z,0
2017-06-18T01:43:15.833Z,0
2017-06-18T01:44:17.081Z,0
2017-06-18T01:45:18.386Z,0
2017-06-18T01:46:19.640Z,0
2017-06-18T01:47:20.938Z,0
2017-06-18T01:48:22.214Z,0
2017-06-18T01:49:23.505Z,0
2017-06-18T01:50:24.761Z,0
2017-06-18T01:51:26.022Z,0
2017-06-18T01:52:27.261Z,0
2017-06-18T01:53:28.498Z,0
2017-06-18T01:54:29.783Z,0
2017-06-18T01:55:30.999Z,0
2017-06-18T01:56:32.242Z,0
2017-06-18T01:57:33.641Z,0
2017-06-18T01:58:34.864Z,0
2017-06-18T01:59:36.372Z,0
2017-06-18T02:00:37.636Z,0
2017-06-18T02:01:38.883Z,0
2017-06-18T02:02:40.124Z,0
2017-06-18T02:03:41.390Z,0
2017-06-18T02:04:42.637Z,0
2017-06-18T02:05:43.860Z,0
2017-06-18T02:06:45.110Z,0
2017-06-18T02:07:46.358Z,0
2017-06-18T02:08:47.601Z,0
2017-06-18T02:09:48.864Z,0
2017-06-18T02:10:50.119Z,0
2017-06-18T02:11:51.346Z,0
2017-06-18T02:12:52.611Z,0
2017-06-18T02:13:53.871Z,0
2017-06-18T02:14:55.119Z,0
2017-06-18T02:15:56.362Z,0
2017-06-18T02:16:57.657Z,0
2017-06-18T02:17:58.924Z,0
2017-06-18T02:19:00.158Z,0
2017-06-18T02:20:01.519Z,0
2017-06-18T02:21:02.757Z,0
2017-06-18T02:22:04.001Z,4
2017-06-18T02:23:05.341Z,4
2017-06-18T02:24:06.574Z,4
2017-06-18T02:25:07.821Z,0
2017-06-18T02:26:09.077Z,0
2017-06-18T02:27:10.325Z,4
2017-06-18T02:28:11.578Z,4
2017-06-18T02:29:12.839Z,4
2017-06-18T02:30:14.078Z,4
2017-06-18T02:31:15.331Z,8
2017-06-18T02:32:16.574Z,4
2017-06-18T02:33:17.920Z,8
2017-06-18T02:34:19.167Z,8
2017-06-18T02:35:20.493Z,8
2017-06-18T02:36:21.831Z,8
2017-06-18T02:37:23.128Z,12
2017-06-18T02:38:24.374Z,12
2017-06-18T02:39:25.678Z,16
2017-06-18T02:40:26.929Z,20
2017-06-18T02:41:28.286Z,20
2017-06-18T02:42:29.573Z,20
2017-06-18T02:43:30.823Z,24
2017-06-18T02:44:32.065Z,28
2017-06-18T02:45:33.300Z,32
2017-06-18T02:46:34.543Z,36
2017-06-18T02:47:36.045Z,40
2017-06-18T02:48:37.387Z,44
2017-06-18T02:49:38.636Z,52
2017-06-18T02:50:39.877Z,56
2017-06-18T02:51:41.122Z,60
2017-06-18T02:52:42.437Z,68
2017-06-18T02:53:43.692Z,72
2017-06-18T02:54:44.974Z,80
2017-06-18T02:55:46.197Z,92
2017-06-18T02:56:47.443Z,100
2017-06-18T02:57:48.683Z,108
2017-06-18T02:58:49.909Z,120
2017-06-18T02:59:51.169Z,132
2017-06-18T03:00:52.401Z,144
2017-06-18T03:01:53.646Z,152
2017-06-18T03:02:54.886Z,168
2017-06-18T03:03:56.125Z,180
2017-06-18T03:04:57.363Z,196
2017-06-18T03:05:58.697Z,212
2017-06-18T03:06:59.939Z,228
2017-06-18T03:08:01.165Z,244
2017-06-18T03:09:02.422Z,264
2017-06-18T03:10:03.668Z,284
2017-06-18T03:11:04.910Z,300
2017-06-18T03:12:06.160Z,324
2017-06-18T03:13:07.468Z,340
2017-06-18T03:14:08.790Z,368
2017-06-18T03:15:10.041Z,388
2017-06-18T03:16:11.289Z,416
2017-06-18T03:17:12.524Z,444
2017-06-18T03:18:13.761Z,472
2017-06-18T03:19:15.164Z,500
2017-06-18T03:20:16.316Z,528
2017-06-18T03:21:17.552Z,556
2017-06-18T03:22:18.815Z,588
2017-06-18T03:23:20.042Z,620
2017-06-18T03:24:21.291Z,648
2017-06-18T03:25:22.530Z,676
2017-06-18T03:26:23.871Z,708
2017-06-18T03:27:25.138Z,736
2017-06-18T03:28:26.597Z,764
2017-06-18T03:29:27.845Z,796
2017-06-18T03:30:29.083Z,832
2017-06-18T03:31:30.362Z,864
2017-06-18T03:32:31.603Z,900
2017-06-18T03:33:32.842Z,932
2017-06-18T03:34:34.087Z,968
2017-06-18T03:35:35.330Z,1000
2017-06-18T03:36:36.583Z,1036
2017-06-18T03:37:37.839Z,1072
2017-06-18T03:38:39.107Z,1108
2017-06-18T03:39:40.353Z,1140
2017-06-18T03:40:41.608Z,1176
2017-06-18T03:41:42.837Z,1216
2017-06-18T03:42:44.070Z,1256
2017-06-18T03:43:45.355Z,1292
2017-06-18T03:44:46.578Z,1324
2017-06-18T03:45:47.843Z,1360
2017-06-18T03:46:49.130Z,1392
2017-06-18T03:47:50.369Z,1420
2017-06-18T03:48:51.635Z,1440
2017-06-18T03:49:52.855Z,1444
2017-06-18T03:50:54.152Z,1464
2017-06-18T03:51:55.407Z,1504
2017-06-18T03:52:56.634Z,1568
2017-06-18T03:53:57.893Z,1640
2017-06-18T03:54:59.136Z,1700
2017-06-18T03:56:00.373Z,1756
2017-06-18T03:57:01.604Z,1820
2017-06-18T03:58:02.865Z,1912
2017-06-18T03:59:04.140Z,2008
2017-06-18T04:00:05.399Z,2104
2017-06-18T04:01:06.644Z,2192
2017-06-18T04:02:07.887Z,2248
2017-06-18T04:03:09.142Z,2380
2017-06-18T04:04:10.375Z,2508
2017-06-18T04:05:11.692Z,2524
2017-06-18T04:06:12.931Z,2504
2017-06-18T04:07:14.179Z,2616
2017-06-18T04:08:15.430Z,2856
2017-06-18T04:09:16.697Z,2768
2017-06-18T04:10:17.940Z,2716
2017-06-18T04:11:19.169Z,2720
2017-06-18T04:12:20.432Z,2760
2017-06-18T04:13:21.803Z,2832
2017-06-18T04:14:23.048Z,2776
2017-06-18T04:15:24.294Z,2712
2017-06-18T04:16:25.536Z,2704
2017-06-18T04:17:26.837Z,2752
2017-06-18T04:18:28.032Z,2884
2017-06-18T04:19:29.416Z,2936
2017-06-18T04:20:30.660Z,2904
2017-06-18T04:21:31.917Z,2920
2017-06-18T04:22:33.254Z,3012
2017-06-18T04:23:34.396Z,3092
2017-06-18T04:24:35.700Z,3160
2017-06-18T04:25:36.945Z,3132
2017-06-18T04:26:38.192Z,3068
2017-06-18T04:27:39.539Z,3024
2017-06-18T04:28:40.708Z,2988
2017-06-18T04:29:42.001Z,3004
2017-06-18T04:30:43.281Z,3016
2017-06-18T04:31:44.537Z,3044
2017-06-18T04:32:45.775Z,3072
2017-06-18T04:33:47.028Z,3120
2017-06-18T04:34:48.276Z,3216
2017-06-18T04:35:49.543Z,3352
2017-06-18T04:36:50.765Z,3428
2017-06-18T04:37:52.015Z,3572
2017-06-18T04:38:53.284Z,3720
2017-06-18T04:39:54.535Z,3488
2017-06-18T04:40:55.804Z,3372
2017-06-18T04:41:57.181Z,3384
2017-06-18T04:42:58.320Z,3364
2017-06-18T04:43:59.567Z,3348
2017-06-18T04:45:00.807Z,3372
2017-06-18T04:46:02.051Z,3404
2017-06-18T04:47:03.317Z,3444
2017-06-18T04:48:04.564Z,3468
2017-06-18T04:49:05.875Z,3500
2017-06-18T04:50:07.250Z,3524
2017-06-18T04:51:08.478Z,3540
2017-06-18T04:52:09.718Z,3576
2017-06-18T04:53:10.960Z,3712
2017-06-18T04:54:12.226Z,4180
2017-06-18T04:55:13.477Z,4528
2017-06-18T04:56:14.719Z,4952
2017-06-18T04:57:15.966Z,5364
2017-06-18T04:58:17.215Z,5036
2017-06-18T04:59:18.467Z,4556
2017-06-18T05:00:19.703Z,4472
2017-06-18T05:01:21.084Z,4740
2017-06-18T05:02:22.334Z,5492
2017-06-18T05:03:23.575Z,5208
2017-06-18T05:04:24.828Z,4504
2017-06-18T05:05:26.079Z,4184
2017-06-18T05:06:27.446Z,4140
2017-06-18T05:07:28.691Z,4384
2017-06-18T05:08:29.940Z,5380
2017-06-18T05:09:31.197Z,6796
2017-06-18T05:10:32.462Z,7888
2017-06-18T05:11:33.808Z,7580
2017-06-18T05:12:35.070Z,6324
2017-06-18T05:13:36.319Z,5816
2017-06-18T05:14:37.568Z,6260
2017-06-18T05:15:38.817Z,6060
2017-06-18T05:16:40.062Z,6816
2017-06-18T05:17:41.309Z,7408
2017-06-18T05:18:42.565Z,6840
2017-06-18T05:19:43.817Z,6648
2017-06-18T05:20:45.116Z,7988
2017-06-18T05:21:46.355Z,8820
2017-06-18T05:22:47.648Z,8436
2017-06-18T05:23:48.896Z,8076
2017-06-18T05:24:50.142Z,6736
2017-06-18T05:25:51.374Z,6180
2017-06-18T05:26:52.621Z,6532
2017-06-18T05:27:53.878Z,6392
2017-06-18T05:28:55.115Z,5952
2017-06-18T05:29:56.366Z,5760
2017-06-18T05:30:57.633Z,5928
2017-06-18T05:31:58.874Z,6380
2017-06-18T05:33:00.206Z,7020
2017-06-18T05:34:01.507Z,7732
2017-06-18T05:35:02.741Z,8788
2017-06-18T05:36:04.022Z,10384
2017-06-18T05:37:05.255Z,12120
2017-06-18T05:38:06.614Z,17024
2017-06-18T05:39:07.992Z,21632
2017-06-18T05:40:09.242Z,24000
2017-06-18T05:41:10.498Z,25344
2017-06-18T05:42:11.758Z,25952
2017-06-18T05:43:12.986Z,26176
2017-06-18T05:44:14.275Z,25856
2017-06-18T05:45:15.528Z,24128
2017-06-18T05:46:16.774Z,26784
2017-06-18T05:47:18.063Z,26976
2017-06-18T05:48:19.322Z,26784
2017-06-18T05:49:20.581Z,27776
2017-06-18T05:50:21.914Z,27712
2017-06-18T05:51:23.198Z,28128
2017-06-18T05:52:24.450Z,28096
2017-06-18T05:53:25.767Z,28128
2017-06-18T05:54:27.025Z,28352
2017-06-18T05:55:28.261Z,29632
2017-06-18T05:56:29.554Z,30560
2017-06-18T05:57:30.840Z,30688
2017-06-18T05:58:32.084Z,30528
2017-06-18T05:59:33.341Z,31296
2017-06-18T06:00:34.592Z,31808
2017-06-18T06:01:35.847Z,31680
2017-06-18T06:02:37.199Z,32000
2017-06-18T06:03:38.358Z,32544
2017-06-18T06:04:39.634Z,32800
2017-06-18T06:05:40.891Z,33088
2017-06-18T06:06:42.154Z,33568
2017-06-18T06:07:43.408Z,33248
2017-06-18T06:08:44.653Z,33568
2017-06-18T06:09:45.923Z,34432
2017-06-18T06:10:47.230Z,35040
2017-06-18T06:11:48.499Z,25952
2017-06-18T06:12:49.783Z,19456
2017-06-18T06:13:51.034Z,36224
2017-06-18T06:14:52.398Z,36256
2017-06-18T06:15:53.804Z,36768
2017-06-18T06:16:55.033Z,37376
2017-06-18T06:17:56.304Z,38720
2017-06-18T06:18:57.538Z,39040
2017-06-18T06:19:58.824Z,39488
2017-06-18T06:21:00.213Z,39328
2017-06-18T06:22:01.479Z,39840
2017-06-18T06:23:02.734Z,40064
2017-06-18T06:24:03.978Z,40000
2017-06-18T06:25:05.230Z,41760
2017-06-18T06:26:06.612Z,42336
2017-06-18T06:27:08.017Z,41504
2017-06-18T06:28:09.265Z,39616
2017-06-18T06:29:10.507Z,40032
2017-06-18T06:30:11.797Z,40064
2017-06-18T06:31:13.043Z,40640
2017-06-18T06:32:14.336Z,40960
2017-06-18T06:33:15.596Z,41216
2017-06-18T06:34:16.840Z,42144
2017-06-18T06:35:18.109Z,39392
2017-06-18T06:36:19.366Z,30368
2017-06-18T06:37:20.653Z,40512
2017-06-18T06:38:21.937Z,45376
2017-06-18T06:39:23.194Z,45664
2017-06-18T06:40:24.442Z,47008
2017-06-18T06:41:25.803Z,45952
2017-06-18T06:42:27.062Z,44320
2017-06-18T06:43:28.437Z,47200
2017-06-18T06:44:29.748Z,50880
2017-06-18T06:45:30.988Z,50592
2017-06-18T06:46:32.248Z,49440
2017-06-18T06:47:33.495Z,48928
2017-06-18T06:48:34.760Z,50912
2017-06-18T06:49:36.030Z,51680
2017-06-18T06:50:37.379Z,48768
2017-06-18T06:51:38.627Z,23232
2017-06-18T06:52:39.903Z,47680
2017-06-18T06:53:41.164Z,49536
2017-06-18T06:54:42.421Z,52672
2017-06-18T06:55:43.668Z,52128
2017-06-18T06:56:44.922Z,54752
2017-06-18T06:57:46.207Z,52736
2017-06-18T06:58:47.441Z,55072
2017-06-18T06:59:48.717Z,54080
2017-06-18T07:00:49.977Z,53376
2017-06-18T07:01:51.233Z,54944
2017-06-18T07:02:52.492Z,58272
2017-06-18T07:03:53.775Z,60000
2017-06-18T07:04:54.987Z,60576
2017-06-18T07:05:56.242Z,60416
2017-06-18T07:06:57.506Z,64416
2017-06-18T07:07:58.784Z,64928
2017-06-18T07:09:00.119Z,56896
2017-06-18T07:10:01.413Z,45792
2017-06-18T07:11:02.663Z,46688
2017-06-18T07:12:03.932Z,42144
2017-06-18T07:13:05.214Z,54432
2017-06-18T07:14:06.481Z,56768
2017-06-18T07:15:07.853Z,62976
2017-06-18T07:16:09.120Z,66144
2017-06-18T07:17:10.379Z,63712
2017-06-18T07:18:11.654Z,62208
2017-06-18T07:19:12.907Z,61728
2017-06-18T07:20:14.166Z,65248
2017-06-18T07:21:15.414Z,66432
2017-06-18T07:22:16.676Z,67488
2017-06-18T07:23:17.954Z,66752
2017-06-18T07:24:19.196Z,68032
2017-06-18T07:25:20.512Z,65472
2017-06-18T07:26:21.762Z,61984
2017-06-18T07:27:23.077Z,60224
2017-06-18T07:28:24.319Z,61568
2017-06-18T07:29:25.678Z,61600
2017-06-18T07:30:26.940Z,61408
2017-06-18T07:31:28.225Z,60160
2017-06-18T07:32:29.471Z,60192
2017-06-18T07:33:30.724Z,66400
2017-06-18T07:34:32.098Z,68704
2017-06-18T07:35:33.371Z,58976
2017-06-18T07:36:34.641Z,53984
2017-06-18T07:37:35.908Z,46848
2017-06-18T07:38:37.178Z,44384
2017-06-18T07:39:38.478Z,44960
2017-06-18T07:40:39.779Z,46176
2017-06-18T07:41:41.014Z,45216
2017-06-18T07:42:42.275Z,42144
2017-06-18T07:43:43.594Z,44800
2017-06-18T07:44:44.859Z,51232
2017-06-18T07:45:46.240Z,59616
2017-06-18T07:46:47.573Z,61792
2017-06-18T07:47:48.826Z,61632
2017-06-18T07:48:50.089Z,62080
2017-06-18T07:49:51.351Z,63520
2017-06-18T07:50:52.616Z,68352
2017-06-18T07:51:54.013Z,72160
2017-06-18T07:52:55.270Z,68992
2017-06-18T07:53:56.564Z,72160
2017-06-18T07:54:57.844Z,77984
2017-06-18T07:55:59.140Z,78400
2017-06-18T07:57:00.389Z,76960
2017-06-18T07:58:01.652Z,74272
2017-06-18T07:59:02.909Z,71552
2017-06-18T08:00:04.168Z,71520
2017-06-18T08:01:05.430Z,75104
2017-06-18T08:02:06.694Z,81056
2017-06-18T08:03:07.982Z,80832
2017-06-18T08:04:09.350Z,83168
2017-06-18T08:05:10.611Z,82176
2017-06-18T08:06:11.871Z,78976
2017-06-18T08:07:13.144Z,76736
2017-06-18T08:08:14.434Z,76160
2017-06-18T08:09:15.710Z,74528
2017-06-18T08:10:16.967Z,74080
2017-06-18T08:11:18.230Z,74176
2017-06-18T08:12:19.486Z,75264
2017-06-18T08:13:20.803Z,77152
2017-06-18T08:14:22.043Z,78240
2017-06-18T08:15:23.356Z,77984
2017-06-18T08:16:24.576Z,74912
2017-06-18T08:17:25.834Z,72288
2017-06-18T08:18:27.105Z,72960
2017-06-18T08:19:28.397Z,75936
2017-06-18T08:20:29.689Z,75392
2017-06-18T08:21:30.947Z,72480
2017-06-18T08:22:32.225Z,69760
2017-06-18T08:23:33.491Z,70304
2017-06-18T08:24:34.774Z,74144
2017-06-18T08:25:36.019Z,76064
2017-06-18T08:26:37.333Z,67904
2017-06-18T08:27:38.602Z,65024
2017-06-18T08:28:39.902Z,63264
2017-06-18T08:29:41.168Z,63648
2017-06-18T08:30:42.443Z,75840
2017-06-18T08:31:43.710Z,82272
2017-06-18T08:32:44.994Z,86368
2017-06-18T08:33:46.387Z,84416
2017-06-18T08:34:47.694Z,81920
2017-06-18T08:35:48.954Z,80352
2017-06-18T08:36:50.210Z,80576
2017-06-18T08:37:51.495Z,82816
2017-06-18T08:38:52.758Z,83104
2017-06-18T08:39:54.079Z,86592
2017-06-18T08:40:55.366Z,87328
2017-06-18T08:41:56.627Z,87456
2017-06-18T08:42:57.874Z,85952
2017-06-18T08:43:59.123Z,83744
2017-06-18T08:45:00.492Z,85952
2017-06-18T08:46:01.769Z,87392
2017-06-18T08:47:03.033Z,90400
2017-06-18T08:48:04.339Z,88288
2017-06-18T08:49:05.596Z,84288
2017-06-18T08:50:06.847Z,81120
2017-06-18T08:51:08.134Z,82880
2017-06-18T08:52:09.445Z,82208
2017-06-18T08:53:10.724Z,83232
2017-06-18T08:54:12.001Z,83584
2017-06-18T08:55:13.244Z,85696
2017-06-18T08:56:14.521Z,87584
2017-06-18T08:57:15.800Z,89536
2017-06-18T08:58:17.057Z,89504
2017-06-18T08:59:18.316Z,86176
2017-06-18T09:00:19.576Z,84416
2017-06-18T09:01:20.826Z,85408
2017-06-18T09:02:22.153Z,87936
2017-06-18T09:03:23.463Z,87872
2017-06-18T09:04:24.680Z,90336
2017-06-18T09:05:25.949Z,92928
2017-06-18T09:06:27.200Z,93760
2017-06-18T09:07:28.471Z,89856
2017-06-18T09:08:29.825Z,89280
2017-06-18T09:09:31.226Z,94432
2017-06-18T09:10:32.416Z,96032
2017-06-18T09:11:33.704Z,93920
2017-06-18T09:12:34.950Z,93152
2017-06-18T09:13:36.228Z,92032
2017-06-18T09:14:37.573Z,94016
2017-06-18T09:15:38.839Z,96864
2017-06-18T09:16:40.228Z,96256
2017-06-18T09:17:41.501Z,92896
2017-06-18T09:18:42.779Z,91648
2017-06-18T09:19:44.069Z,93760
2017-06-18T09:20:45.342Z,97984
2017-06-18T09:21:46.618Z,96928
2017-06-18T09:22:47.911Z,99264
2017-06-18T09:23:49.178Z,95936
2017-06-18T09:24:50.464Z,94624
2017-06-18T09:25:51.766Z,92928
2017-06-18T09:26:53.017Z,95584
2017-06-18T09:27:54.284Z,63872
2017-06-18T09:28:55.560Z,23072
2017-06-18T09:29:56.819Z,34400
2017-06-18T09:30:58.086Z,22464
2017-06-18T09:31:59.367Z,25440
2017-06-18T09:33:00.690Z,91328
2017-06-18T09:34:01.984Z,94816
2017-06-18T09:35:03.247Z,99648
2017-06-18T09:36:04.503Z,98208
2017-06-18T09:37:05.806Z,96352
2017-06-18T09:38:07.078Z,97120
2017-06-18T09:39:08.355Z,93216
2017-06-18T09:40:09.631Z,92672
2017-06-18T09:41:10.890Z,94624
2017-06-18T09:42:12.177Z,91040
2017-06-18T09:43:13.454Z,91360
2017-06-18T09:44:14.725Z,92224
2017-06-18T09:45:16.023Z,101792
2017-06-18T09:46:17.305Z,99424
2017-06-18T09:47:18.575Z,93792
2017-06-18T09:48:19.882Z,92032
2017-06-18T09:49:21.129Z,99680
2017-06-18T09:50:22.420Z,105056
2017-06-18T09:51:23.691Z,104576
2017-06-18T09:52:24.982Z,97440
2017-06-18T09:53:26.228Z,97120
2017-06-18T09:54:27.498Z,97888
2017-06-18T09:55:28.766Z,94720
2017-06-18T09:56:30.143Z,24704
2017-06-18T09:57:31.435Z,20096
2017-06-18T09:58:32.712Z,14264
2017-06-18T09:59:33.965Z,11864
2017-06-18T10:00:35.231Z,11852
2017-06-18T10:01:36.491Z,13552
2017-06-18T10:02:37.792Z,14924
2017-06-18T10:03:39.061Z,13904
2017-06-18T10:04:40.316Z,13192
2017-06-18T10:05:41.605Z,13568
2017-06-18T10:06:42.889Z,16928
2017-06-18T10:07:44.143Z,21152
2017-06-18T10:08:45.525Z,29664
2017-06-18T10:09:46.763Z,81984
2017-06-18T10:10:48.025Z,88576
2017-06-18T10:11:49.301Z,91936
2017-06-18T10:12:50.546Z,74816
2017-06-18T10:13:51.809Z,91840
2017-06-18T10:14:53.066Z,95488
2017-06-18T10:15:54.401Z,98080
2017-06-18T10:16:55.681Z,87904
2017-06-18T10:17:56.943Z,78592
2017-06-18T10:18:58.203Z,78272
2017-06-18T10:19:59.539Z,81920
2017-06-18T10:21:00.740Z,77984
2017-06-18T10:22:02.118Z,80896
2017-06-18T10:23:03.382Z,83104
2017-06-18T10:24:04.628Z,86880
2017-06-18T10:25:05.909Z,86464
2017-06-18T10:26:07.181Z,86560
2017-06-18T10:27:08.478Z,88544
2017-06-18T10:28:09.714Z,87552
2017-06-18T10:29:10.982Z,87232
2017-06-18T10:30:12.269Z,86528
2017-06-18T10:31:13.533Z,92448
2017-06-18T10:32:14.814Z,77120
2017-06-18T10:33:16.091Z,29152
2017-06-18T10:34:17.364Z,82592
2017-06-18T10:35:18.624Z,80288
2017-06-18T10:36:19.884Z,53760
2017-06-18T10:37:21.157Z,20896
2017-06-18T10:38:22.424Z,14848
2017-06-18T10:39:23.695Z,14020
2017-06-18T10:40:24.946Z,12980
2017-06-18T10:41:26.253Z,12048
2017-06-18T10:42:27.489Z,10952
2017-06-18T10:43:28.768Z,10660
2017-06-18T10:44:30.014Z,10536
2017-06-18T10:45:31.273Z,10228
2017-06-18T10:46:32.560Z,10048
2017-06-18T10:47:33.815Z,9544
2017-06-18T10:48:35.090Z,9540
2017-06-18T10:49:36.322Z,9504
2017-06-18T10:50:37.578Z,9504
2017-06-18T10:51:38.845Z,9792
2017-06-18T10:52:40.137Z,10380
2017-06-18T10:53:41.403Z,11140
2017-06-18T10:54:42.650Z,11800
2017-06-18T10:55:43.907Z,11588
2017-06-18T10:56:45.166Z,11172
2017-06-18T10:57:46.437Z,11444
2017-06-18T10:58:47.702Z,11696
2017-06-18T10:59:48.975Z,11872
2017-06-18T11:00:50.252Z,11144
2017-06-18T11:01:51.503Z,10844
2017-06-18T11:02:52.770Z,11324
2017-06-18T11:03:54.024Z,12336
2017-06-18T11:04:55.293Z,13136
2017-06-18T11:05:56.589Z,13312
2017-06-18T11:06:57.846Z,13284
2017-06-18T11:07:59.124Z,13004
2017-06-18T11:09:00.378Z,11908
2017-06-18T11:10:01.656Z,11312
2017-06-18T11:11:02.915Z,10768
2017-06-18T11:12:04.219Z,10300
2017-06-18T11:13:05.490Z,10928
2017-06-18T11:14:06.739Z,11316
2017-06-18T11:15:08.086Z,11772
2017-06-18T11:16:09.376Z,11656
2017-06-18T11:17:10.607Z,11396
2017-06-18T11:18:11.869Z,10632
2017-06-18T11:19:13.117Z,10480
2017-06-18T11:20:14.394Z,10108
2017-06-18T11:21:15.631Z,10112
2017-06-18T11:22:16.884Z,10276
2017-06-18T11:23:18.243Z,11064
2017-06-18T11:24:19.496Z,11668
2017-06-18T11:25:20.754Z,11832
2017-06-18T11:26:22.003Z,11644
2017-06-18T11:27:23.263Z,10288
2017-06-18T11:28:24.514Z,9444
2017-06-18T11:29:25.783Z,8868
2017-06-18T11:30:27.084Z,8852
2017-06-18T11:31:28.325Z,8884
2017-06-18T11:32:29.580Z,8744
2017-06-18T11:33:30.847Z,8456
2017-06-18T11:34:32.122Z,8540
2017-06-18T11:35:33.425Z,8776
2017-06-18T11:36:34.656Z,9364
2017-06-18T11:37:35.928Z,9644
2017-06-18T11:38:37.178Z,9684
2017-06-18T11:39:38.436Z,10236
2017-06-18T11:40:39.807Z,11548
2017-06-18T11:41:41.117Z,12436
2017-06-18T11:42:42.342Z,12760
2017-06-18T11:43:43.605Z,12392
2017-06-18T11:44:44.839Z,11460
2017-06-18T11:45:46.122Z,10932
2017-06-18T11:46:47.401Z,10608
2017-06-18T11:47:48.719Z,10612
2017-06-18T11:48:49.968Z,11032
2017-06-18T11:49:51.228Z,11836
2017-06-18T11:50:52.474Z,12132
2017-06-18T11:51:53.721Z,11608
2017-06-18T11:52:54.974Z,11280
2017-06-18T11:53:56.378Z,11228
2017-06-18T11:54:57.625Z,10948
2017-06-18T11:55:58.880Z,11168
2017-06-18T11:57:00.142Z,11732
2017-06-18T11:58:01.424Z,11444
2017-06-18T11:59:02.695Z,11432
2017-06-18T12:00:03.961Z,12020
2017-06-18T12:01:05.218Z,12936
2017-06-18T12:02:06.472Z,13520
2017-06-18T12:03:07.750Z,13912
2017-06-18T12:04:09.026Z,13296
2017-06-18T12:05:10.303Z,13352
2017-06-18T12:06:11.558Z,13252
2017-06-18T12:07:12.868Z,13188
2017-06-18T12:08:14.134Z,13396
2017-06-18T12:09:15.396Z,13752
2017-06-18T12:10:16.654Z,13228
2017-06-18T12:11:17.926Z,11984
2017-06-18T12:12:19.202Z,10944
2017-06-18T12:13:20.443Z,10260
2017-06-18T12:14:21.716Z,9856
2017-06-18T12:15:22.969Z,9516
2017-06-18T12:16:24.230Z,9580
2017-06-18T12:17:25.489Z,9592
2017-06-18T12:18:26.754Z,9480
2017-06-18T12:19:28.135Z,9144
2017-06-18T12:20:29.405Z,8984
2017-06-18T12:21:30.647Z,9144
2017-06-18T12:22:31.920Z,9628
2017-06-18T12:23:33.203Z,10604
2017-06-18T12:24:34.512Z,11196
2017-06-18T12:25:35.787Z,11508
2017-06-18T12:26:37.046Z,12080
2017-06-18T12:27:38.350Z,12784
2017-06-18T12:28:39.597Z,12688
2017-06-18T12:29:40.877Z,11732
2017-06-18T12:30:42.185Z,11036
2017-06-18T12:31:43.432Z,10600
2017-06-18T12:32:44.686Z,10108
2017-06-18T12:33:45.973Z,9888
2017-06-18T12:34:47.257Z,10212
2017-06-18T12:35:48.544Z,10440
2017-06-18T12:36:49.821Z,10656
2017-06-18T12:37:51.070Z,10808
2017-06-18T12:38:52.341Z,10716
2017-06-18T12:39:53.599Z,10700
2017-06-18T12:40:54.958Z,10736
2017-06-18T12:41:56.223Z,10820
2017-06-18T12:42:57.503Z,10692
2017-06-18T12:43:58.758Z,10532
2017-06-18T12:45:00.031Z,10720
2017-06-18T12:46:01.318Z,10884
2017-06-18T12:47:02.597Z,11044
2017-06-18T12:48:03.958Z,11032
2017-06-18T12:49:05.215Z,10780
2017-06-18T12:50:06.494Z,10744
2017-06-18T12:51:07.757Z,10712
2017-06-18T12:52:09.002Z,10728
2017-06-18T12:53:10.255Z,10640
2017-06-18T12:54:11.524Z,10832
2017-06-18T12:55:12.821Z,11176
2017-06-18T12:56:14.066Z,11516
2017-06-18T12:57:15.359Z,11424
2017-06-18T12:58:16.652Z,11140
2017-06-18T12:59:17.945Z,10868
2017-06-18T13:00:19.224Z,10208
2017-06-18T13:01:20.507Z,9580
2017-06-18T13:02:21.797Z,8800
2017-06-18T13:03:23.031Z,8044
2017-06-18T13:04:24.277Z,7348
2017-06-18T13:05:25.533Z,7080
2017-06-18T13:06:26.916Z,7184
2017-06-18T13:07:28.150Z,7416
2017-06-18T13:08:29.416Z,7744
2017-06-18T13:09:30.714Z,8056
2017-06-18T13:10:31.952Z,8656
2017-06-18T13:11:33.200Z,9196
2017-06-18T13:12:34.488Z,9552
2017-06-18T13:13:35.768Z,9628
2017-06-18T13:14:37.030Z,9592
2017-06-18T13:15:38.288Z,9300
2017-06-18T13:16:39.542Z,9096
2017-06-18T13:17:40.788Z,8856
2017-06-18T13:18:42.049Z,8612
2017-06-18T13:19:43.428Z,8508
2017-06-18T13:20:44.664Z,8392
2017-06-18T13:21:45.975Z,8336
2017-06-18T13:22:47.226Z,8252
2017-06-18T13:23:48.572Z,8144
2017-06-18T13:24:49.808Z,8144
2017-06-18T13:25:51.055Z,8176
2017-06-18T13:26:52.404Z,8404
2017-06-18T13:27:53.652Z,8488
2017-06-18T13:28:54.914Z,8420
2017-06-18T13:29:56.177Z,8308
2017-06-18T13:30:57.477Z,8268
2017-06-18T13:31:58.721Z,8248
2017-06-18T13:32:59.973Z,8280
2017-06-18T13:34:01.232Z,8616
2017-06-18T13:35:02.503Z,8688
2017-06-18T13:36:03.796Z,8720
2017-06-18T13:37:05.067Z,8624
2017-06-18T13:38:06.301Z,8604
2017-06-18T13:39:07.555Z,8804